Terminal Aerodrome Forecast
Issued by NWS Upton, NY

Current Version | Previous Version | Text Only | Print | Product List | Glossary On
Versions: 1 2 3 4 5 6 7 8 9 10 11 12 13 14 15 16 17 18 19 20 21 22 23 24
043
FTUS41 KOKX 141124
TAFISP
TAF
KISP 141124Z 1412/1512 33015G23KT P6SM FEW050 FEW250
     FM141700 33012G18KT P6SM SKC
     FM142100 30008KT P6SM SKC
     FM150100 VRB03KT P6SM SKC=

USA.gov is the U.S. government's official web portal to all federal, state and local government web resources and services.